KAGC/AGC METAR and TAF weather

Enter ICAO airport designator
Station Type Date Time Source
KAGC METAR 2019/05/23 18:53 UTC NOAA

KAGC 231853Z 24012G22KT 190V270 10SM CLR 25/17 A3001 RMK AO2 PK WND 21026/1842 SLP160 T02500172


Station Type Date Time Source
KAGC Decoded METAR 2019/05/23 18:53 UTC NOAA

PITTSBURGH ALLEGHENY CTY., PA, United States (KAGC) 40-21N 079-55W 389M
May 23, 2019 - 02:53 PM EDT / 2019.05.23 1853 UTC
Wind: from the WSW (240 degrees) at 14 MPH (12 KT) gusting to 25 MPH (22 KT) (direction variable):0
Visibility: 10 mile(s):0
Sky conditions: clear
Temperature: 77.0 F (25.0 C)
Dew Point: 63.0 F (17.2 C)
Relative Humidity: 61%
Pressure (altimeter): 30.01 in. Hg (1016 hPa)
ob: KAGC 231853Z 24012G22KT 190V270 10SM CLR 25/17 A3001 RMK AO2 PK WND 21026/1842 SLP160 T02500172
cycle: 19

Station Type Date Time Source
KAGC TAF 2019/05/23 18:22 UTC NOAA

TAF KAGC 231720Z 2318/2418 24014G22KT P6SM SCT050 WS020/24035KT
FM240000 27017G24KT P6SM VCTS BKN040CB
FM240200 31010KT P6SM BKN050
FM241500 31012G18KT P6SM SCT100

Example: see airport list